createdAt,value
2022-08-17T00:02:26.600Z,18.50
2022-08-17T00:08:37.415Z,17.55
2022-08-17T00:11:17.383Z,16.88
2022-08-17T00:17:25.400Z,21.55
2022-08-17T00:19:52.142Z,23.42
2022-08-17T00:26:07.134Z,22.70
2022-08-17T00:33:12.594Z,24.63
2022-08-17T00:35:05.712Z,18.33
2022-08-17T00:37:32.528Z,19.35
2022-08-17T00:39:59.394Z,18.20
2022-08-17T00:42:30.450Z,18.80
2022-08-17T00:44:58.134Z,22.20
2022-08-17T00:47:25.302Z,18.33
2022-08-17T00:49:52.018Z,19.00
2022-08-17T00:52:22.929Z,19.80
2022-08-17T00:54:53.941Z,20.33
2022-08-17T00:57:29.854Z,17.80
2022-08-17T01:00:02.477Z,18.13
2022-08-17T01:02:41.454Z,17.08
2022-08-17T01:05:25.433Z,17.60
2022-08-17T01:07:53.563Z,16.50
2022-08-17T01:11:00.533Z,17.75
2022-08-17T01:13:14.642Z,17.85
2022-08-17T01:15:48.297Z,17.63
2022-08-17T01:18:16.543Z,16.27
2022-08-17T01:20:51.736Z,18.25
2022-08-17T01:23:21.322Z,22.00
2022-08-17T01:25:57.817Z,16.13
2022-08-17T01:28:40.701Z,16.17
2022-08-17T01:31:15.075Z,15.48
2022-08-17T01:33:42.148Z,15.85
2022-08-17T01:36:09.516Z,17.67
2022-08-17T01:38:37.811Z,17.75
2022-08-17T01:41:13.445Z,15.43
2022-08-17T01:43:55.148Z,16.25
2022-08-17T01:46:27.099Z,17.08
2022-08-17T01:48:56.060Z,18.08
2022-08-17T01:51:24.880Z,17.15
2022-08-17T01:53:56.110Z,19.00
2022-08-17T01:56:25.726Z,19.20
2022-08-17T01:58:53.689Z,17.35
2022-08-17T02:01:23.178Z,18.92
2022-08-17T02:03:59.308Z,20.17
2022-08-17T02:06:30.035Z,19.77
2022-08-17T02:09:02.599Z,20.55
2022-08-17T02:11:32.310Z,19.35
2022-08-17T02:14:02.462Z,20.40
2022-08-17T02:16:37.517Z,19.08
2022-08-17T02:19:08.046Z,20.17
2022-08-17T02:21:36.663Z,20.90
2022-08-17T02:24:05.735Z,21.57
2022-08-17T02:26:32.537Z,21.38
2022-08-17T02:28:59.576Z,21.73
2022-08-17T02:31:26.571Z,24.08
2022-08-17T02:33:56.685Z,23.05
2022-08-17T02:36:35.242Z,24.33
2022-08-17T02:39:07.295Z,22.60
2022-08-17T02:41:34.709Z,23.45
2022-08-17T02:44:01.538Z,20.35
2022-08-17T02:46:28.672Z,19.98
2022-08-17T02:48:55.728Z,23.20
2022-08-17T02:51:22.596Z,17.75
2022-08-17T02:53:50.069Z,16.80
2022-08-17T02:56:17.146Z,16.92
2022-08-17T02:58:44.213Z,17.17
2022-08-17T03:01:11.030Z,15.43
2022-08-17T03:03:38.431Z,17.63
2022-08-17T03:06:07.551Z,13.75
2022-08-17T03:08:35.271Z,17.67
2022-08-17T03:11:01.985Z,20.33
2022-08-17T03:13:30.677Z,13.73
2022-08-17T03:15:57.905Z,13.95
2022-08-17T03:18:26.380Z,15.75
2022-08-17T03:20:56.265Z,17.57
2022-08-17T03:23:25.291Z,17.77
2022-08-17T03:28:21.933Z,18.80
2022-08-17T03:30:49.198Z,18.52
2022-08-17T03:33:16.852Z,19.45
2022-08-17T03:35:44.450Z,20.67
2022-08-17T03:38:12.814Z,22.02
2022-08-17T03:40:57.192Z,24.63
2022-08-17T03:43:29.653Z,24.58
2022-08-17T03:46:28.659Z,25.20
2022-08-17T03:49:19.419Z,24.65
2022-08-17T03:52:04.836Z,27.25
2022-08-17T03:54:50.409Z,28.42
2022-08-17T03:57:17.485Z,28.33
2022-08-17T03:59:45.095Z,32.45
2022-08-17T04:02:21.335Z,26.85
2022-08-17T04:04:51.322Z,28.88
2022-08-17T04:07:20.790Z,28.40
2022-08-17T04:12:17.097Z,31.77
2022-08-17T04:14:52.626Z,31.95
2022-08-17T04:17:23.095Z,32.30
2022-08-17T04:19:49.851Z,34.75
2022-08-17T04:22:30.954Z,31.25
2022-08-17T04:25:16.001Z,32.50
2022-08-17T04:27:42.941Z,32.33
2022-08-17T04:30:10.484Z,32.63
2022-08-17T04:33:05.939Z,31.42
2022-08-17T04:35:50.034Z,32.08
2022-08-17T04:38:20.818Z,31.73
2022-08-17T04:41:06.723Z,30.15
2022-08-17T04:43:34.912Z,32.22
2022-08-17T04:46:05.009Z,31.55
2022-08-17T04:48:37.440Z,32.13
2022-08-17T04:51:11.711Z,31.05
2022-08-17T04:53:41.705Z,31.38
2022-08-17T04:56:11.620Z,37.47
2022-08-17T04:58:44.735Z,34.58
2022-08-17T05:01:11.727Z,31.98
2022-08-17T05:03:38.660Z,50.40
2022-08-17T05:06:05.993Z,34.30
2022-08-17T05:08:32.996Z,32.65
2022-08-17T05:11:00.344Z,32.75
2022-08-17T05:13:31.772Z,32.53
2022-08-17T05:16:01.622Z,34.22
2022-08-17T05:18:29.877Z,30.15
2022-08-17T05:20:57.604Z,35.13
2022-08-17T05:23:26.826Z,41.58
2022-08-17T05:26:02.785Z,95.57
2022-08-17T05:28:29.822Z,47.63
2022-08-17T05:30:59.772Z,52.30
2022-08-17T05:33:29.427Z,55.55
2022-08-17T05:35:58.168Z,50.28
2022-08-17T05:38:26.976Z,36.50
2022-08-17T05:40:54.453Z,44.13
2022-08-17T05:43:23.375Z,32.83
2022-08-17T05:45:59.324Z,37.83
2022-08-17T05:48:35.391Z,32.60
2022-08-17T05:51:22.833Z,44.53
2022-08-17T05:54:11.437Z,38.90
2022-08-17T05:57:18.077Z,32.88
2022-08-17T06:00:07.125Z,32.38
2022-08-17T06:03:11.981Z,39.58
2022-08-17T06:06:11.571Z,57.22
2022-08-17T06:08:55.314Z,39.97
2022-08-17T06:11:53.856Z,36.00
2022-08-17T06:14:30.222Z,42.55
2022-08-17T06:17:08.836Z,40.38
2022-08-17T06:20:08.120Z,41.83
2022-08-17T06:22:42.090Z,53.10
2022-08-17T06:25:17.934Z,53.88
2022-08-17T06:27:53.606Z,47.40
2022-08-17T06:30:22.308Z,37.72
2022-08-17T06:32:50.962Z,41.85
2022-08-17T06:35:41.011Z,47.05
2022-08-17T06:38:37.414Z,40.20
2022-08-17T06:41:22.375Z,83.57
2022-08-17T06:44:47.546Z,43.33
2022-08-17T06:47:11.068Z,39.40
2022-08-17T06:50:24.404Z,44.92
2022-08-17T06:52:51.809Z,41.42
2022-08-17T06:55:44.057Z,44.78
2022-08-17T06:58:16.590Z,55.17
2022-08-17T07:00:46.996Z,44.58
2022-08-17T07:03:28.073Z,47.63
2022-08-17T07:06:05.449Z,46.35
2022-08-17T07:08:35.553Z,44.03
2022-08-17T07:11:12.950Z,47.03
2022-08-17T07:13:51.101Z,48.50
2022-08-17T07:16:30.666Z,46.05
2022-08-17T07:18:59.418Z,53.70
2022-08-17T07:21:57.173Z,49.30
2022-08-17T07:24:41.438Z,47.35
2022-08-17T07:27:16.405Z,47.72
2022-08-17T07:30:10.651Z,50.78
2022-08-17T07:32:59.973Z,50.35
2022-08-17T07:35:31.241Z,50.25
2022-08-17T07:38:24.245Z,50.67
2022-08-17T07:40:57.563Z,49.58
2022-08-17T07:43:29.349Z,54.35
2022-08-17T07:46:24.077Z,54.92
2022-08-17T07:48:56.755Z,56.22
2022-08-17T07:51:36.102Z,52.30
2022-08-17T07:54:31.460Z,46.88
2022-08-17T07:57:12.804Z,53.03
2022-08-17T08:00:01.485Z,57.03
2022-08-17T08:02:41.538Z,44.65
2022-08-17T08:05:14.923Z,46.95
2022-08-17T08:08:04.382Z,48.60
2022-08-17T08:10:42.794Z,47.53
2022-08-17T08:13:24.989Z,59.22
2022-08-17T08:15:54.894Z,58.45
2022-08-17T08:18:54.582Z,52.17
2022-08-17T08:21:31.134Z,54.15
2022-08-17T08:24:06.933Z,51.22
2022-08-17T08:26:58.635Z,78.10
2022-08-17T08:30:09.351Z,67.82
2022-08-17T08:32:57.257Z,56.55
2022-08-17T08:35:54.713Z,59.65
2022-08-17T08:38:24.723Z,49.85
2022-08-17T08:41:04.063Z,62.78
2022-08-17T08:44:05.962Z,49.38
2022-08-17T08:47:10.257Z,49.67
2022-08-17T08:50:08.155Z,54.33
2022-08-17T08:53:34.236Z,51.25
2022-08-17T08:56:10.843Z,61.80
2022-08-17T08:59:03.949Z,65.40
2022-08-17T09:02:00.038Z,51.58
2022-08-17T09:05:13.486Z,46.70
2022-08-17T09:08:29.478Z,106.38
2022-08-17T09:11:10.941Z,47.85
2022-08-17T09:14:06.935Z,92.50
2022-08-17T09:17:21.846Z,48.08
2022-08-17T09:19:59.765Z,41.40
2022-08-17T09:22:35.602Z,41.90
2022-08-17T09:25:12.211Z,39.63
2022-08-17T09:28:00.625Z,41.75
2022-08-17T09:30:36.262Z,34.55
2022-08-17T09:33:08.197Z,33.78
2022-08-17T09:36:10.223Z,42.72
2022-08-17T09:38:48.869Z,32.38
2022-08-17T09:41:24.384Z,32.30
2022-08-17T09:44:22.632Z,42.15
2022-08-17T09:47:05.543Z,36.70
2022-08-17T09:49:45.391Z,35.80
2022-08-17T09:52:19.702Z,38.70
2022-08-17T09:54:48.310Z,33.70
2022-08-17T09:57:40.097Z,37.30
2022-08-17T10:00:11.271Z,37.20
2022-08-17T10:03:17.910Z,34.63
2022-08-17T10:05:56.807Z,26.67
2022-08-17T10:08:58.352Z,37.63
2022-08-17T10:12:00.805Z,22.08
2022-08-17T10:15:08.170Z,21.35
2022-08-17T10:17:57.768Z,19.45
2022-08-17T10:21:21.114Z,16.77
2022-08-17T10:24:13.227Z,19.95
2022-08-17T10:26:56.925Z,18.30
2022-08-17T10:29:46.275Z,17.67
2022-08-17T10:32:34.712Z,17.23
2022-08-17T10:35:07.729Z,18.63
2022-08-17T10:37:53.581Z,19.25
2022-08-17T10:40:51.502Z,16.05
2022-08-17T10:43:32.886Z,16.58
2022-08-17T10:46:30.340Z,16.05
2022-08-17T10:49:19.094Z,14.20
2022-08-17T10:51:53.442Z,60.03
2022-08-17T10:54:39.773Z,11.48
2022-08-17T10:57:34.194Z,17.45
2022-08-17T11:00:04.074Z,12.85
2022-08-17T11:02:52.488Z,14.30
2022-08-17T11:05:41.530Z,23.63
2022-08-17T11:08:38.346Z,9.35
2022-08-17T11:11:45.370Z,9.32
2022-08-17T11:14:31.194Z,8.18
2022-08-17T11:17:07.204Z,8.20
2022-08-17T11:19:50.690Z,8.63
2022-08-17T11:22:20.174Z,14.45
2022-08-17T11:24:51.295Z,8.38
2022-08-17T11:27:34.030Z,7.78
2022-08-17T11:30:04.747Z,7.60
2022-08-17T11:32:34.472Z,7.38
2022-08-17T11:35:30.275Z,38.70
2022-08-17T11:38:15.037Z,6.65
2022-08-17T11:41:07.345Z,7.07
2022-08-17T11:43:56.270Z,7.20
2022-08-17T11:47:01.537Z,7.63
2022-08-17T11:50:15.447Z,7.22
2022-08-17T11:52:48.735Z,10.52
2022-08-17T11:55:44.347Z,7.85
2022-08-17T11:58:23.741Z,9.48
2022-08-17T12:00:56.626Z,8.25
2022-08-17T12:03:32.134Z,8.57
2022-08-17T12:06:30.501Z,9.13
2022-08-17T12:09:20.956Z,8.55
2022-08-17T12:12:12.465Z,10.30
2022-08-17T12:15:08.899Z,8.55
2022-08-17T12:17:40.140Z,8.23
2022-08-17T12:20:21.415Z,8.18
2022-08-17T12:23:12.317Z,11.70
2022-08-17T12:25:51.689Z,7.93
2022-08-17T12:28:24.766Z,6.95
2022-08-17T12:30:52.328Z,7.03
2022-08-17T12:33:25.368Z,9.20
2022-08-17T12:36:05.862Z,8.18
2022-08-17T12:38:36.136Z,8.15
2022-08-17T12:41:24.801Z,9.70
2022-08-17T12:44:02.714Z,10.15
2022-08-17T12:46:44.687Z,14.02
2022-08-17T12:49:23.321Z,8.95
2022-08-17T12:51:52.776Z,9.57
2022-08-17T12:54:29.198Z,8.65
2022-08-17T12:56:56.984Z,10.55
2022-08-17T12:59:30.429Z,6.85
2022-08-17T13:01:57.959Z,8.52
2022-08-17T13:04:26.514Z,8.45
2022-08-17T13:06:59.612Z,8.07
2022-08-17T13:09:35.917Z,7.85
2022-08-17T13:12:07.505Z,9.93
2022-08-17T13:14:35.397Z,11.70
2022-08-17T13:17:09.665Z,7.88
2022-08-17T13:19:49.493Z,33.22
2022-08-17T13:22:18.299Z,14.00
2022-08-17T13:24:57.999Z,8.20
2022-08-17T13:27:27.733Z,14.60
2022-08-17T13:30:02.130Z,9.25
2022-08-17T13:32:33.629Z,7.60
2022-08-17T13:35:14.454Z,7.45
2022-08-17T13:37:57.839Z,8.02
2022-08-17T13:40:41.805Z,6.85
2022-08-17T13:43:10.200Z,6.68
2022-08-17T13:45:50.831Z,6.63
2022-08-17T13:48:27.703Z,6.85
2022-08-17T13:50:57.525Z,8.90
2022-08-17T13:53:35.434Z,6.05
2022-08-17T13:56:37.000Z,6.53
2022-08-17T13:59:00.782Z,8.30
2022-08-17T14:01:32.546Z,13.38
2022-08-17T14:04:02.356Z,12.75
2022-08-17T14:06:52.557Z,11.40
2022-08-17T14:09:25.578Z,11.43
2022-08-17T14:11:54.832Z,12.25
2022-08-17T14:16:51.234Z,12.82
2022-08-17T14:19:18.120Z,12.07
2022-08-17T14:21:46.587Z,15.07
2022-08-17T14:24:27.469Z,17.47
2022-08-17T14:26:54.519Z,15.20
2022-08-17T14:29:23.261Z,15.25
2022-08-17T14:31:54.334Z,17.20
2022-08-17T14:34:21.664Z,16.98
2022-08-17T14:36:48.867Z,18.85
2022-08-17T14:39:16.742Z,18.50
2022-08-17T14:41:43.987Z,17.42
2022-08-17T14:44:12.437Z,30.92
2022-08-17T14:46:40.828Z,15.30
2022-08-17T14:49:10.189Z,17.00
2022-08-17T14:51:43.572Z,17.55
2022-08-17T14:54:32.867Z,22.30
2022-08-17T14:57:17.688Z,17.73
2022-08-17T14:59:47.190Z,17.23
2022-08-17T15:02:14.969Z,17.10
2022-08-17T15:04:45.488Z,18.15
2022-08-17T15:07:12.562Z,17.73
2022-08-17T15:09:39.330Z,20.33
2022-08-17T15:12:06.844Z,14.95
2022-08-17T15:14:35.352Z,14.88
2022-08-17T15:17:03.698Z,15.70
2022-08-17T15:19:30.422Z,16.15
2022-08-17T15:21:58.111Z,16.30
2022-08-17T15:24:24.795Z,16.45
2022-08-17T15:26:51.495Z,16.40
2022-08-17T15:29:18.367Z,16.25
2022-08-17T15:31:45.054Z,15.32
2022-08-17T15:34:11.876Z,14.10
2022-08-17T15:36:40.651Z,13.80
2022-08-17T15:39:19.200Z,15.57
2022-08-17T15:41:47.307Z,15.68
2022-08-17T15:44:32.412Z,14.50
2022-08-17T15:47:02.065Z,15.02
2022-08-17T15:49:28.740Z,15.90
2022-08-17T15:51:55.628Z,14.15
2022-08-17T15:54:23.397Z,16.13
2022-08-17T15:56:50.482Z,15.93
2022-08-17T15:59:19.330Z,19.83
2022-08-17T16:03:01.470Z,18.50
2022-08-17T16:04:32.851Z,19.05
2022-08-17T16:07:00.094Z,17.25
2022-08-17T16:09:27.478Z,18.02
2022-08-17T16:11:55.889Z,18.27
2022-08-17T16:14:24.645Z,18.55
2022-08-17T16:17:00.607Z,18.90
2022-08-17T16:19:27.336Z,18.20
2022-08-17T16:21:54.044Z,26.83
2022-08-17T16:24:20.707Z,18.25
2022-08-17T16:26:47.412Z,16.23
2022-08-17T16:29:14.086Z,19.30
2022-08-17T16:31:42.383Z,16.65
2022-08-17T16:34:17.925Z,15.27
2022-08-17T16:36:51.775Z,15.52
2022-08-17T16:39:25.191Z,16.65
2022-08-17T16:41:51.928Z,14.05
2022-08-17T16:44:21.326Z,16.33
2022-08-17T16:49:31.585Z,16.60
2022-08-17T16:52:03.925Z,16.23
2022-08-17T16:54:30.769Z,17.17
2022-08-17T16:56:57.482Z,17.08
2022-08-17T16:59:30.925Z,18.33
2022-08-17T17:02:10.918Z,17.92
2022-08-17T17:04:53.317Z,18.23
2022-08-17T17:07:49.700Z,19.17
2022-08-17T17:10:20.892Z,19.45
2022-08-17T17:13:03.931Z,21.95
2022-08-17T17:16:06.271Z,24.65
2022-08-17T17:18:41.145Z,27.98
2022-08-17T17:21:13.925Z,28.58
2022-08-17T17:23:59.922Z,28.00
2022-08-17T17:26:46.185Z,30.00
2022-08-17T17:29:47.763Z,27.15
2022-08-17T17:32:25.393Z,29.13
2022-08-17T17:35:01.492Z,26.67
2022-08-17T17:37:33.933Z,26.30
2022-08-17T17:40:09.483Z,27.83
2022-08-17T17:42:40.435Z,48.10
2022-08-17T17:45:37.468Z,28.63
2022-08-17T17:48:04.298Z,26.20
2022-08-17T17:50:41.489Z,26.05
2022-08-17T17:53:51.646Z,26.77
2022-08-17T17:56:43.661Z,26.30
2022-08-17T17:59:27.614Z,26.75
2022-08-17T18:02:13.372Z,28.58
2022-08-17T18:04:55.160Z,26.02
2022-08-17T18:07:37.441Z,27.02
2022-08-17T18:10:30.057Z,26.00
2022-08-17T18:13:36.337Z,26.90
2022-08-17T18:16:06.572Z,26.20
2022-08-17T18:18:37.698Z,26.52
2022-08-17T18:21:16.402Z,32.17
2022-08-17T18:23:57.264Z,28.33
2022-08-17T18:26:33.192Z,27.15
2022-08-17T18:29:01.185Z,27.58
2022-08-17T18:31:28.431Z,29.63
2022-08-17T18:34:45.826Z,27.42
2022-08-17T18:37:12.664Z,29.85
2022-08-17T18:39:43.017Z,30.77
2022-08-17T18:42:26.194Z,29.55
2022-08-17T18:44:55.345Z,31.05
2022-08-17T18:50:09.374Z,30.27
2022-08-17T18:52:37.941Z,31.67
2022-08-17T18:55:15.353Z,34.13
2022-08-17T18:57:45.605Z,30.33
2022-08-17T19:00:40.377Z,31.55
2022-08-17T19:03:16.586Z,32.35
2022-08-17T19:05:50.839Z,33.20
2022-08-17T19:08:23.710Z,33.00
2022-08-17T19:10:55.600Z,33.90
2022-08-17T19:13:44.636Z,32.55
2022-08-17T19:16:17.529Z,32.42
2022-08-17T19:18:52.664Z,33.47
2022-08-17T19:21:34.273Z,33.83
2022-08-17T19:24:19.274Z,34.35
2022-08-17T19:27:03.195Z,33.97
2022-08-17T19:29:48.177Z,34.90
2022-08-17T19:32:19.414Z,32.83
2022-08-17T19:34:46.491Z,31.38
2022-08-17T19:37:25.346Z,30.50
2022-08-17T19:40:07.662Z,29.40
2022-08-17T19:42:52.961Z,29.13
2022-08-17T19:45:33.033Z,30.15
2022-08-17T19:48:25.870Z,29.88
2022-08-17T19:51:03.719Z,29.55
2022-08-17T19:53:54.177Z,29.90
2022-08-17T19:56:38.299Z,29.58
2022-08-17T19:59:11.349Z,31.13
2022-08-17T20:02:01.207Z,29.80
2022-08-17T20:04:32.346Z,29.77
2022-08-17T20:07:08.040Z,30.52
2022-08-17T20:10:01.744Z,30.63
2022-08-17T20:12:36.040Z,31.85
2022-08-17T20:15:29.536Z,29.92
2022-08-17T20:17:59.941Z,31.20
2022-08-17T20:20:48.046Z,31.40
2022-08-17T20:23:17.900Z,32.38
2022-08-17T20:26:19.473Z,34.53
2022-08-17T20:29:07.757Z,38.22
2022-08-17T20:31:51.269Z,35.70
2022-08-17T20:34:33.622Z,34.20
2022-08-17T20:37:10.213Z,33.22
2022-08-17T20:39:49.529Z,35.58
2022-08-17T20:42:23.521Z,37.67
2022-08-17T20:45:21.641Z,33.70
2022-08-17T20:48:18.532Z,36.08
2022-08-17T20:50:46.899Z,37.83
2022-08-17T20:53:55.068Z,34.70
2022-08-17T20:56:43.817Z,34.67
2022-08-17T20:59:27.509Z,33.47
2022-08-17T21:02:12.433Z,33.10
2022-08-17T21:05:00.770Z,33.72
2022-08-17T21:07:43.629Z,33.63
2022-08-17T21:10:25.185Z,36.08
2022-08-17T21:13:15.425Z,36.67
2022-08-17T21:15:52.387Z,36.55
2022-08-17T21:18:44.554Z,36.97
2022-08-17T21:21:24.146Z,37.45
2022-08-17T21:24:27.690Z,38.30
2022-08-17T21:27:07.097Z,37.60
2022-08-17T21:32:09.635Z,39.47
2022-08-17T21:34:42.365Z,37.38
2022-08-17T21:37:23.409Z,40.80
2022-08-17T21:40:18.055Z,41.60
2022-08-17T21:42:48.746Z,38.30
2022-08-17T21:45:36.342Z,39.50
2022-08-17T21:48:16.070Z,44.58
2022-08-17T21:51:04.045Z,40.15
2022-08-17T21:53:44.531Z,41.47
2022-08-17T21:56:19.643Z,38.95
2022-08-17T21:58:54.378Z,41.65
2022-08-17T22:01:43.088Z,40.17
2022-08-17T22:04:13.051Z,43.13
2022-08-17T22:06:56.485Z,43.05
2022-08-17T22:09:32.881Z,40.85
2022-08-17T22:12:12.648Z,41.50
2022-08-17T22:14:52.888Z,44.55
2022-08-17T22:17:25.612Z,44.50
2022-08-17T22:20:17.324Z,41.15
2022-08-17T22:23:12.894Z,47.35
2022-08-17T22:25:57.409Z,46.25
2022-08-17T22:28:49.207Z,45.17
2022-08-17T22:31:27.962Z,45.50
2022-08-17T22:33:59.741Z,47.92
2022-08-17T22:36:30.210Z,46.40
2022-08-17T22:39:00.915Z,45.72
2022-08-17T22:41:36.774Z,56.00
2022-08-17T22:44:36.265Z,52.40
2022-08-17T22:50:00.073Z,54.10
2022-08-17T22:52:33.475Z,50.97
2022-08-17T22:55:34.021Z,53.90
2022-08-17T22:58:20.366Z,49.42
2022-08-17T23:00:49.411Z,50.55
2022-08-17T23:03:20.203Z,55.67
2022-08-17T23:06:03.392Z,59.70
2022-08-17T23:08:31.362Z,55.03
2022-08-17T23:11:00.270Z,60.67
2022-08-17T23:13:28.081Z,63.10
2022-08-17T23:15:54.803Z,62.38
2022-08-17T23:18:23.387Z,64.60
2022-08-17T23:20:50.285Z,70.00
2022-08-17T23:23:23.378Z,66.90
2022-08-17T23:25:50.925Z,60.10
2022-08-17T23:28:18.339Z,50.22
2022-08-17T23:30:48.252Z,51.95
2022-08-17T23:33:38.544Z,50.90
2022-08-17T23:36:08.723Z,50.17
2022-08-17T23:38:36.369Z,48.55
2022-08-17T23:41:11.692Z,55.65
2022-08-17T23:43:39.704Z,56.47
2022-08-17T23:46:07.186Z,55.55
2022-08-17T23:48:36.828Z,49.13
2022-08-17T23:51:09.007Z,55.45
2022-08-17T23:53:39.079Z,56.88
2022-08-17T23:56:10.259Z,63.08
2022-08-17T23:58:39.227Z,62.85
